Time;durP1;ratioP1;P1;durP2;ratioP2;P2;SDS_P1;SDS_P2;PMS_P1;PMS_P2;Temp;Humidity;BMP_temperature;BMP_pressure;BME280_temperature;BME280_humidity;BME280_pressure;Samples;Min_cycle;Max_cycle;Signal;HPM_P1;HPM_P2
2022/07/16 00:01:34;;;;;;;6.70;2.00;;;;;;;14.06;89.88;101117.09;8296709;28;20521;-56
2022/07/16 00:05:34;;;;;;;6.32;2.50;;;;;;;13.98;91.01;101114.28;8307556;28;20033;-56
2022/07/16 00:09:35;;;;;;;10.93;2.78;;;;;;;14.36;88.50;101118.75;8323047;28;20044;-57
2022/07/16 00:13:35;;;;;;;8.23;2.72;;;;;;;14.46;88.51;101117.72;8323838;28;20112;-56
2022/07/16 00:17:36;;;;;;;5.72;2.45;;;;;;;14.71;85.90;101114.28;8306686;28;20034;-56
2022/07/16 00:21:36;;;;;;;6.63;2.50;;;;;;;14.52;86.82;101111.63;8292620;28;20026;-56
2022/07/16 00:25:36;;;;;;;9.30;2.80;;;;;;;14.03;89.84;101106.50;8297340;28;20050;-57
2022/07/16 00:29:37;;;;;;;5.60;2.35;;;;;;;13.76;91.75;101110.03;8297711;28;20288;-57
2022/07/16 00:33:37;;;;;;;7.22;2.10;;;;;;;14.03;91.06;101111.97;8302381;28;20049;-56
2022/07/16 00:37:37;;;;;;;13.43;2.60;;;;;;;13.99;90.72;101110.53;8319447;28;20037;-57
2022/07/16 00:41:40;;;;;;;5.07;2.60;;;;;;;14.16;90.35;101101.63;8322105;28;20278;-57
2022/07/16 00:45:41;;;;;;;8.80;2.60;;;;;;;14.28;89.27;101105.91;8317588;28;20037;-56
2022/07/16 00:49:42;;;;;;;6.22;2.95;;;;;;;13.90;91.76;101106.00;8321388;28;20044;-56
2022/07/16 00:53:44;;;;;;;4.45;2.53;;;;;;;14.18;89.63;101105.03;8319047;28;20445;-56
2022/07/16 00:57:44;;;;;;;3.97;2.50;;;;;;;14.34;88.77;101116.19;8322136;28;20052;-57
2022/07/16 01:01:45;;;;;;;3.90;2.20;;;;;;;13.84;91.11;101101.16;8320259;28;20053;-57
2022/07/16 01:05:45;;;;;;;5.43;2.38;;;;;;;14.08;90.22;101106.94;8317940;28;20302;-57
2022/07/16 01:09:47;;;;;;;5.40;2.22;;;;;;;13.92;90.75;101098.56;8322037;28;20029;-57
2022/07/16 01:13:50;;;;;;;6.47;2.30;;;;;;;14.12;90.45;101094.75;8320690;28;20036;-57
2022/07/16 01:17:50;;;;;;;4.13;2.70;;;;;;;14.26;89.71;101097.03;8321988;28;20037;-57
2022/07/16 01:21:50;;;;;;;3.83;2.97;;;;;;;14.28;89.52;101096.88;8319300;28;20136;-57
2022/07/16 01:25:51;;;;;;;5.18;2.92;;;;;;;14.19;89.72;101095.88;8319613;28;20498;-57
2022/07/16 01:29:52;;;;;;;5.35;2.97;;;;;;;14.24;89.66;101109.06;8317910;28;20337;-57
2022/07/16 01:34:53;;;;;;;5.82;2.80;;;;;;;13.68;92.51;101109.06;8320162;28;20048;-57
2022/07/16 01:38:13;;;;;;;3.92;2.58;;;;;;;13.78;91.77;101112.59;8317251;28;20092;-56
2022/07/16 01:42:13;;;;;;;5.72;2.78;;;;;;;13.30;94.92;101109.94;8317246;28;20034;-57
2022/07/16 01:46:13;;;;;;;7.85;3.47;;;;;;;13.42;95.88;101116.13;8318875;28;20402;-56
2022/07/16 01:50:14;;;;;;;6.28;3.08;;;;;;;13.52;94.82;101114.25;8317398;28;20034;-56
2022/07/16 01:54:14;;;;;;;5.37;2.67;;;;;;;13.61;93.57;101116.91;8320403;28;20049;-57
2022/07/16 01:58:15;;;;;;;8.18;3.13;;;;;;;13.71;93.01;101111.47;8315347;28;20411;-57
2022/07/16 02:02:16;;;;;;;7.95;3.00;;;;;;;13.43;94.50;101105.09;8320267;28;20482;-57
2022/07/16 02:06:16;;;;;;;8.98;3.33;;;;;;;13.44;95.04;101105.94;8317939;28;20079;-57
2022/07/16 02:10:16;;;;;;;7.53;3.28;;;;;;;13.43;94.80;101098.81;8317715;28;20091;-57
2022/07/16 02:14:17;;;;;;;5.05;3.30;;;;;;;13.54;93.86;101098.63;8320912;28;20498;-57
2022/07/16 02:18:17;;;;;;;4.60;3.00;;;;;;;13.33;94.52;101095.25;8316949;28;20104;-57
2022/07/16 02:22:17;;;;;;;7.25;3.97;;;;;;;13.45;94.19;101094.94;8318963;28;20402;-57
2022/07/16 02:26:18;;;;;;;4.67;3.43;;;;;;;13.46;93.60;101101.22;8316716;28;20096;-57
2022/07/16 02:30:18;;;;;;;5.82;3.42;;;;;;;13.54;93.32;101101.34;8319524;28;20277;-57
2022/07/16 02:34:19;;;;;;;5.78;3.65;;;;;;;13.52;93.32;101106.09;8314574;28;20045;-57
2022/07/16 02:39:15;;;;;;;5.95;3.10;;;;;;;13.01;96.04;101105.53;8320479;28;20033;-56
2022/07/16 02:43:15;;;;;;;8.80;4.03;;;;;;;13.33;95.19;101108.84;8316920;28;20051;-57
2022/07/16 02:47:16;;;;;;;6.97;3.45;;;;;;;13.44;95.59;101103.22;8314535;28;20500;-57
2022/07/16 02:51:16;;;;;;;8.40;3.93;;;;;;;13.45;95.20;101103.09;8316815;28;20053;-57
2022/07/16 02:55:17;;;;;;;6.20;3.53;;;;;;;13.42;95.05;101110.69;8318455;28;20319;-57
2022/07/16 02:59:17;;;;;;;5.40;3.17;;;;;;;13.35;95.11;101101.38;8316711;28;20414;-57
2022/07/16 03:03:18;;;;;;;9.40;3.88;;;;;;;13.60;94.14;101106.19;8319338;28;20038;-56
2022/07/16 03:07:18;;;;;;;3.88;3.20;;;;;;;13.52;94.49;101106.09;8317483;28;20054;-57
2022/07/16 03:11:18;;;;;;;3.60;3.00;;;;;;;13.65;93.93;101104.78;8318756;28;20047;-54
2022/07/16 03:15:19;;;;;;;10.63;4.30;;;;;;;13.71;93.53;101111.47;8315664;28;20049;-57
2022/07/16 03:19:19;;;;;;;11.30;3.23;;;;;;;13.51;94.76;101120.69;8316481;28;20795;-57
2022/07/16 03:23:19;;;;;;;7.77;3.10;;;;;;;13.42;96.14;101116.13;8318389;28;20284;-56
2022/07/16 03:27:20;;;;;;;8.27;3.67;;;;;;;13.38;95.63;101114.66;8316054;28;20695;-57
2022/07/16 03:31:20;;;;;;;5.85;3.38;;;;;;;13.59;94.50;101123.50;8317143;28;20068;-57
2022/07/16 03:35:21;;;;;;;3.90;2.90;;;;;;;13.68;94.44;101122.66;8313573;28;20045;-57
2022/07/16 03:39:21;;;;;;;7.97;3.42;;;;;;;13.67;93.77;101132.66;8306213;28;20120;-57
2022/07/16 03:43:22;;;;;;;8.00;3.30;;;;;;;13.68;93.76;101122.66;8330596;28;20132;-57
2022/07/16 03:47:22;;;;;;;4.50;3.03;;;;;;;13.65;94.51;101125.66;8294662;28;20277;-58
2022/07/16 03:51:23;;;;;;;6.27;3.03;;;;;;;13.74;93.84;101127.50;8292933;28;20064;-57
2022/07/16 03:55:23;;;;;;;5.70;3.05;;;;;;;13.76;93.80;101130.94;8293155;28;20281;-57
2022/07/16 03:59:23;;;;;;;5.97;3.05;;;;;;;13.62;95.18;101124.09;8302166;28;20125;-57
2022/07/16 04:03:24;;;;;;;5.53;3.07;;;;;;;13.81;94.22;101129.50;8292234;28;20117;-57
2022/07/16 04:07:25;;;;;;;12.02;3.15;;;;;;;13.97;93.38;101126.19;8359231;28;20271;-57
2022/07/16 04:11:25;;;;;;;7.55;3.28;;;;;;;14.10;92.81;101129.41;8330563;28;20068;-56
2022/07/16 04:15:26;;;;;;;5.50;3.25;;;;;;;14.16;92.36;101133.41;8330035;28;20508;-56
2022/07/16 04:19:26;;;;;;;6.45;3.28;;;;;;;14.29;91.86;101134.81;8329090;28;20037;-57
2022/07/16 04:23:27;;;;;;;4.68;3.22;;;;;;;14.36;92.21;101130.47;8309256;28;20513;-56
2022/07/16 04:27:27;;;;;;;4.57;3.08;;;;;;;14.68;91.46;101135.47;8301253;28;20594;-58
2022/07/16 04:31:28;;;;;;;6.32;2.72;;;;;;;14.94;88.46;101141.91;8298052;28;20030;-58
2022/07/16 04:35:28;;;;;;;6.35;3.35;;;;;;;14.88;88.89;101148.81;8313653;28;20049;-55
2022/07/16 04:39:28;;;;;;;4.53;3.13;;;;;;;14.93;89.75;101151.94;8329508;28;20038;-56
2022/07/16 04:43:29;;;;;;;6.18;3.00;;;;;;;15.05;87.95;101156.19;8328108;28;20364;-57
2022/07/16 04:47:29;;;;;;;9.50;3.97;;;;;;;15.23;86.21;101151.59;8328547;28;20414;-58
2022/07/16 04:51:30;;;;;;;5.28;2.95;;;;;;;15.45;85.93;101148.44;8328531;28;20347;-57
2022/07/16 04:55:30;;;;;;;4.53;2.67;;;;;;;15.60;85.67;101151.47;8327501;28;20132;-56
2022/07/16 04:59:31;;;;;;;4.75;2.83;;;;;;;15.68;84.99;101148.81;8312399;28;20283;-58
2022/07/16 05:03:32;;;;;;;6.20;2.97;;;;;;;15.67;85.33;101147.94;8298720;28;20473;-57
2022/07/16 05:07:32;;;;;;;5.80;3.33;;;;;;;15.69;85.33;101140.47;8332350;28;20041;-57
2022/07/16 05:11:33;;;;;;;7.15;3.17;;;;;;;15.47;87.34;101130.03;8346984;28;20034;-57
2022/07/16 05:15:33;;;;;;;6.90;3.15;;;;;;;15.29;89.57;101137.34;8322936;28;20049;-57
2022/07/16 05:19:33;;;;;;;5.80;2.65;;;;;;;15.30;91.38;101139.06;8296574;28;20038;-58
2022/07/16 05:23:34;;;;;;;3.80;2.47;;;;;;;15.58;90.60;101140.72;8297270;28;20553;-56
2022/07/16 05:27:34;;;;;;;5.63;2.83;;;;;;;15.52;91.45;101149.50;8300988;28;20268;-58
2022/07/16 05:31:34;;;;;;;6.07;2.25;;;;;;;15.65;89.95;101146.41;8321464;28;20034;-57
2022/07/16 05:35:35;;;;;;;7.25;3.25;;;;;;;15.67;91.09;101147.94;8324757;28;20045;-57
2022/07/16 05:39:35;;;;;;;5.68;3.33;;;;;;;15.80;90.66;101160.31;8328103;28;20516;-57
2022/07/16 05:43:36;;;;;;;3.07;2.77;;;;;;;16.01;89.46;101144.47;8324814;28;20033;-57
2022/07/16 05:47:36;;;;;;;7.03;2.75;;;;;;;16.35;90.25;101148.06;8342963;28;20264;-57
2022/07/16 05:51:37;;;;;;;5.22;3.17;;;;;;;16.94;85.75;101140.69;8328690;28;20033;-57
2022/07/16 05:55:37;;;;;;;4.47;2.15;;;;;;;17.47;81.44;101143.00;8326302;28;20042;-57
2022/07/16 05:59:38;;;;;;;5.78;2.38;;;;;;;17.89;79.28;101154.66;8327531;28;20171;-57
2022/07/16 06:03:48;;;;;;;7.35;2.40;;;;;;;18.20;76.39;101157.53;8319841;28;20140;-58
2022/07/16 06:07:48;;;;;;;4.22;1.88;;;;;;;18.47;75.21;101160.75;8329275;28;20048;-58
2022/07/16 06:11:49;;;;;;;4.75;2.00;;;;;;;18.51;75.08;101155.78;8349550;28;20044;-58
2022/07/16 06:15:50;;;;;;;4.85;1.90;;;;;;;18.62;75.84;101169.94;8352154;28;20683;-57
2022/07/16 06:19:50;;;;;;;5.53;2.00;;;;;;;18.89;73.95;101177.72;8325624;28;20060;-57
2022/07/16 06:23:50;;;;;;;9.77;1.97;;;;;;;19.13;71.67;101174.81;8327664;28;20045;-58
2022/07/16 06:27:51;;;;;;;5.32;1.77;;;;;;;19.18;70.78;101182.50;8323513;28;20824;-58
2022/07/16 06:31:51;;;;;;;6.20;1.80;;;;;;;19.12;70.64;101186.00;8302452;28;20038;-57
2022/07/16 06:35:52;;;;;;;4.63;1.67;;;;;;;19.06;71.94;101189.47;8325413;28;20705;-57
2022/07/16 06:39:52;;;;;;;5.82;2.00;;;;;;;19.07;72.71;101202.97;8325452;28;20041;-58
2022/07/16 06:43:53;;;;;;;6.18;1.80;;;;;;;19.13;71.62;101202.25;8328795;28;20033;-56
2022/07/16 06:47:53;;;;;;;7.70;2.97;;;;;;;19.17;73.86;101203.59;8326876;28;20045;-58
2022/07/16 06:51:54;;;;;;;8.88;2.40;;;;;;;19.26;73.33;101210.78;8320100;28;20042;-57
2022/07/16 06:55:54;;;;;;;9.45;2.63;;;;;;;19.31;73.91;101211.09;8318598;28;20047;-58
2022/07/16 06:59:54;;;;;;;11.23;2.77;;;;;;;19.30;74.35;101214.88;8303746;28;20049;-57
2022/07/16 07:03:56;;;;;;;7.30;2.83;;;;;;;19.15;75.57;101219.38;8293216;28;20975;-58
2022/07/16 07:07:56;;;;;;;10.70;2.70;;;;;;;19.07;75.54;101216.69;8298901;28;20213;-58
2022/07/16 07:11:56;;;;;;;8.27;3.07;;;;;;;19.27;76.39;101226.19;8291746;28;20038;-56
2022/07/16 07:15:58;;;;;;;9.38;3.22;;;;;;;19.57;76.81;101220.91;8293569;28;20371;-58
2022/07/16 07:19:58;;;;;;;8.40;3.35;;;;;;;20.16;74.86;101228.38;8291301;28;20084;-58
2022/07/16 07:23:58;;;;;;;11.43;3.80;;;;;;;20.47;72.64;101226.34;8289899;28;20045;-58
2022/07/16 07:27:59;;;;;;;9.13;3.28;;;;;;;20.54;74.28;101235.53;8287823;28;20311;-58
2022/07/16 07:31:59;;;;;;;7.60;3.07;;;;;;;20.38;72.75;101238.44;8295975;28;20148;-58
2022/07/16 07:36:00;;;;;;;10.23;4.73;;;;;;;20.00;75.08;101232.06;8307527;28;20057;-58
2022/07/16 07:40:02;;;;;;;11.65;4.05;;;;;;;19.99;74.91;101238.59;8300935;28;20406;-58
2022/07/16 07:44:03;;;;;;;11.00;4.35;;;;;;;20.56;74.47;101230.72;8325583;28;20093;-57
2022/07/16 07:48:04;;;;;;;6.35;4.35;;;;;;;21.00;72.68;101234.34;8321087;28;20501;-58
2022/07/16 07:52:06;;;;;;;13.38;5.45;;;;;;;20.60;74.13;101235.66;8342668;28;20037;-58
2022/07/16 07:56:08;;;;;;;10.68;4.38;;;;;;;20.86;74.69;101233.28;8327403;28;20172;-58
2022/07/16 08:00:09;;;;;;;10.55;4.90;;;;;;;20.94;73.67;101246.06;8305620;28;20453;-58
2022/07/16 08:04:10;;;;;;;9.27;4.55;;;;;;;20.97;74.00;101246.59;8303070;28;20119;-58
2022/07/16 08:08:10;;;;;;;11.75;4.57;;;;;;;21.42;72.64;101244.63;8301748;28;20041;-57
2022/07/16 08:12:11;;;;;;;10.45;5.38;;;;;;;21.83;70.79;101243.88;8315682;28;20042;-58
2022/07/16 08:16:11;;;;;;;8.40;4.68;;;;;;;22.42;71.12;101245.28;8313479;28;20068;-57
2022/07/16 08:20:13;;;;;;;9.10;4.47;;;;;;;22.54;69.92;101249.22;8308215;28;20459;-58
2022/07/16 08:25:46;;;;;;;6.45;4.97;;;;;;;22.20;68.28;101251.88;8292649;28;20109;-58
2022/07/16 08:28:34;;;;;;;9.18;4.25;;;;;;;22.33;69.29;101251.16;8311013;28;20116;-58
2022/07/16 08:32:35;;;;;;;7.40;4.43;;;;;;;21.89;69.87;101253.28;8297676;28;20041;-58
2022/07/16 08:36:36;;;;;;;7.80;3.88;;;;;;;21.93;71.50;101266.47;8302243;28;20041;-58
2022/07/16 08:40:41;;;;;;;6.30;3.63;;;;;;;21.93;70.12;101263.72;8299315;28;20045;-58
2022/07/16 08:44:42;;;;;;;7.45;4.25;;;;;;;22.38;70.56;101268.78;8295029;28;20046;-58
2022/07/16 08:48:42;;;;;;;6.13;4.50;;;;;;;22.29;67.42;101261.72;8307525;28;20037;-58
2022/07/16 08:52:47;;;;;;;7.03;3.92;;;;;;;21.86;69.79;101260.00;8334090;28;20054;-58
2022/07/16 08:56:50;;;;;;;6.35;3.97;;;;;;;21.89;69.33;101264.28;8325315;28;20061;-58
2022/07/16 09:00:50;;;;;;;6.80;4.20;;;;;;;22.32;67.72;101260.47;8333138;28;20047;-58
2022/07/16 09:04:50;;;;;;;9.52;5.05;;;;;;;22.58;68.96;101266.22;8330092;28;20033;-58
2022/07/16 09:08:52;;;;;;;9.90;4.50;;;;;;;23.23;66.07;101265.81;8330844;28;20071;-58
2022/07/16 09:12:52;;;;;;;7.50;3.45;;;;;;;22.84;66.67;101272.78;8331570;28;20707;-58
2022/07/16 09:16:53;;;;;;;8.00;3.88;;;;;;;22.07;68.74;101283.94;8324818;28;20045;-57
2022/07/16 09:20:57;;;;;;;5.40;3.00;;;;;;;21.67;70.60;101290.91;8320495;28;20029;-58
2022/07/16 09:24:58;;;;;;;11.40;3.65;;;;;;;21.64;71.55;101293.16;8292432;28;20679;-56
2022/07/16 09:29:03;;;;;;;7.73;3.13;;;;;;;21.78;71.73;101297.84;8295187;28;20425;-56
2022/07/16 09:33:13;;;;;;;5.43;2.83;;;;;;;22.02;70.72;101308.50;8302778;28;20269;-56
2022/07/16 09:37:14;;;;;;;8.98;3.03;;;;;;;22.28;70.45;101304.09;8292512;28;20528;-56
2022/07/16 09:41:15;;;;;;;3.08;2.13;;;;;;;22.18;69.59;101302.72;8290551;28;20046;-57
2022/07/16 09:45:20;;;;;;;4.22;2.40;;;;;;;21.93;71.08;101310.53;8293441;28;20045;-57
2022/07/16 09:49:21;;;;;;;2.33;1.80;;;;;;;21.74;71.08;101311.13;8292286;28;20469;-57
2022/07/16 09:53:23;;;;;;;3.58;1.40;;;;;;;21.90;70.47;101308.16;8299078;28;20420;-57
2022/07/16 09:57:27;;;;;;;4.32;1.45;;;;;;;21.77;69.77;101321.75;8305997;28;20049;-57
2022/07/16 10:01:27;;;;;;;3.00;1.30;;;;;;;21.73;68.70;101316.78;8320733;28;20759;-56
2022/07/16 10:05:28;;;;;;;2.42;0.60;;;;;;;21.78;65.27;101322.59;8318657;28;20530;-57
2022/07/16 10:09:29;;;;;;;2.40;0.80;;;;;;;23.90;59.60;101324.75;8290493;28;20136;-56
2022/07/16 10:13:31;;;;;;;1.48;0.80;;;;;;;25.32;54.94;101312.13;8314170;28;20450;-56
2022/07/16 10:17:35;;;;;;;0.65;0.50;;;;;;;25.69;53.92;101325.22;8311511;28;20068;-56
2022/07/16 10:21:36;;;;;;;;;;;;;;;24.60;54.27;101328.75;8313544;28;20061;-55
2022/07/16 10:25:36;;;;;;;2.80;0.70;;;;;;;26.31;51.20;101336.44;8316840;28;19921;-56
2022/07/16 10:29:40;;;;;;;0.88;0.50;;;;;;;26.50;50.73;101332.66;8303864;28;20064;-56
2022/07/16 10:33:41;;;;;;;1.33;0.50;;;;;;;24.94;52.07;101341.53;8310282;28;20151;-57
2022/07/16 10:37:41;;;;;;;2.07;0.40;;;;;;;26.38;49.10;101333.63;8311246;28;20048;-56
2022/07/16 10:46:05;;;;;;;0.80;0.47;;;;;;;28.69;46.55;101344.50;8347866;27;20398;-56
2022/07/16 10:50:19;;;;;;;2.90;0.90;;;;;;;29.00;44.28;101346.94;8338822;28;20041;-54
2022/07/16 10:54:19;;;;;;;0.47;0.35;;;;;;;29.35;44.19;101339.50;8362408;28;20494;-56
2022/07/16 10:58:26;;;;;;;1.90;0.63;;;;;;;28.37;45.05;101360.59;8369187;28;20467;-55
2022/07/16 11:02:26;;;;;;;3.47;0.60;;;;;;;27.08;48.19;101349.09;8363012;28;20555;-54
2022/07/16 11:06:27;;;;;;;1.90;0.80;;;;;;;26.27;49.73;101346.28;8365284;28;20040;-56
2022/07/16 11:10:27;;;;;;;2.17;0.77;;;;;;;28.32;45.78;101342.91;8367035;28;20366;-55
2022/07/16 11:14:30;;;;;;;2.30;0.70;;;;;;;30.40;43.83;101343.72;8364307;28;20397;-55
2022/07/16 11:18:39;;;;;;;0.82;0.70;;;;;;;28.03;45.75;101349.31;8366633;28;20059;-56
2022/07/16 11:22:40;;;;;;;2.97;0.60;;;;;;;26.98;48.36;101343.19;8365237;28;20044;-55
2022/07/16 11:26:40;;;;;;;4.40;0.95;;;;;;;26.01;49.06;101346.41;8362584;28;20040;-57
2022/07/16 11:30:40;;;;;;;2.90;0.60;;;;;;;25.40;51.85;101342.34;8364814;28;20439;-56
2022/07/16 11:34:41;;;;;;;2.33;1.07;;;;;;;26.49;49.03;101353.16;8356171;28;20268;-56
2022/07/16 11:38:41;;;;;;;2.78;0.80;;;;;;;25.25;50.57;101361.09;8366462;28;20509;-55
2022/07/16 11:42:42;;;;;;;2.85;0.70;;;;;;;25.29;50.88;101356.84;8365319;28;20582;-56
2022/07/16 11:46:46;;;;;;;1.77;0.77;;;;;;;26.93;47.18;101351.34;8364408;28;20044;-56
2022/07/16 11:50:47;;;;;;;1.80;0.75;;;;;;;28.49;44.40;101346.75;8364666;28;20029;-56
2022/07/16 11:54:49;;;;;;;1.58;0.68;;;;;;;31.47;40.92;101350.91;8356307;28;20033;-56
2022/07/16 11:58:50;;;;;;;2.40;0.65;;;;;;;28.76;44.00;101356.38;8343891;28;20041;-56
2022/07/16 12:02:57;;;;;;;2.92;0.70;;;;;;;26.43;47.67;101356.81;8343705;28;20503;-55
2022/07/16 12:06:57;;;;;;;2.08;0.45;;;;;;;26.67;47.72;101344.94;8339237;28;20055;-57
2022/07/16 12:11:01;;;;;;;1.40;0.60;;;;;;;27.69;45.25;101328.53;8342282;28;20032;-56
2022/07/16 12:15:06;;;;;;;2.22;0.82;;;;;;;28.08;47.60;101335.53;8341919;28;20040;-56
2022/07/16 12:19:12;;;;;;;3.30;0.60;;;;;;;27.07;45.96;101342.66;8341905;28;20041;-56
2022/07/16 12:23:14;;;;;;;4.78;0.90;;;;;;;25.74;48.63;101344.78;8342009;28;20501;-57
2022/07/16 12:27:15;;;;;;;2.70;0.85;;;;;;;24.85;49.48;101353.88;8339767;28;20072;-57
2022/07/16 12:31:15;;;;;;;2.03;0.55;;;;;;;24.83;49.96;101347.72;8341719;28;20343;-56
2022/07/16 12:35:38;;;;;;;3.73;0.70;;;;;;;24.99;50.59;101344.53;8341756;28;20123;-56
2022/07/16 12:39:40;;;;;;;2.77;1.00;;;;;;;25.55;48.89;101345.72;8341151;28;20791;-56
2022/07/16 12:43:44;;;;;;;1.45;0.82;;;;;;;25.06;49.47;101361.13;8340840;28;20451;-56
2022/07/16 12:47:44;;;;;;;2.13;0.77;;;;;;;25.06;49.14;101361.97;8337747;28;20621;-57
2022/07/16 12:51:49;;;;;;;6.50;0.90;;;;;;;25.25;49.01;101355.53;8339221;28;20365;-56
2022/07/16 13:00:10;;;;;;;5.88;1.00;;;;;;;25.53;48.58;101353.41;8343284;28;20489;-56
2022/07/16 13:04:11;;;;;;;5.60;1.13;;;;;;;24.67;48.93;101367.53;8341479;28;20036;-57
2022/07/16 13:08:11;;;;;;;6.85;1.30;;;;;;;24.36;49.81;101369.97;8340361;28;20591;-57
2022/07/16 13:12:12;;;;;;;5.97;1.20;;;;;;;24.62;51.18;101364.50;8340808;28;20032;-57
2022/07/16 13:16:13;;;;;;;4.82;0.90;;;;;;;24.73;50.02;101373.03;8339794;28;20044;-56
2022/07/16 13:20:13;;;;;;;3.10;0.70;;;;;;;24.28;50.53;101381.25;8340950;28;20045;-55
2022/07/16 13:24:14;;;;;;;2.65;0.88;;;;;;;24.00;51.16;101369.47;8340608;28;20045;-57
2022/07/16 13:28:14;;;;;;;4.00;1.10;;;;;;;24.21;50.14;101366.56;8341769;28;20040;-57
2022/07/16 13:32:15;;;;;;;2.65;1.25;;;;;;;24.74;48.71;101362.84;8337078;28;20268;-55
2022/07/16 13:36:15;;;;;;;2.85;0.90;;;;;;;24.99;49.32;101358.34;8341348;28;20147;-57
2022/07/16 13:40:16;;;;;;;4.15;1.00;;;;;;;24.78;49.19;101364.09;8341743;28;20545;-57
2022/07/16 13:44:16;;;;;;;2.25;0.88;;;;;;;24.73;48.01;101366.69;8337857;28;20399;-57
2022/07/16 13:48:17;;;;;;;4.97;0.90;;;;;;;24.39;49.48;101364.03;8339114;28;20058;-57
2022/07/16 13:52:18;;;;;;;3.35;0.85;;;;;;;24.77;48.71;101365.19;8341678;28;20120;-57
2022/07/16 13:56:18;;;;;;;5.18;1.00;;;;;;;24.68;47.78;101363.69;8339923;28;20362;-56
2022/07/16 14:00:19;;;;;;;3.45;0.88;;;;;;;24.80;49.27;101356.47;8339977;28;20456;-56
2022/07/16 14:04:20;;;;;;;2.40;0.63;;;;;;;24.79;48.11;101360.25;8341033;28;20051;-56
2022/07/16 14:08:21;;;;;;;4.30;1.00;;;;;;;24.53;48.57;101365.75;8341537;28;20603;-56
2022/07/16 14:12:22;;;;;;;3.75;1.15;;;;;;;24.59;48.70;101374.06;8338797;28;20041;-57
2022/07/16 14:16:22;;;;;;;4.32;1.10;;;;;;;24.47;48.82;101372.13;8336557;28;20041;-56
2022/07/16 14:20:23;;;;;;;3.15;0.90;;;;;;;25.26;47.96;101362.81;8337728;28;20384;-56
2022/07/16 14:24:23;;;;;;;2.72;0.80;;;;;;;25.34;47.84;101365.38;8336854;28;20045;-56
2022/07/16 14:28:24;;;;;;;6.70;0.90;;;;;;;24.76;48.66;101369.84;8334791;28;20072;-56
2022/07/16 14:32:24;;;;;;;5.13;1.43;;;;;;;24.86;49.22;101369.44;8334780;28;20075;-56
2022/07/16 14:36:25;;;;;;;7.45;1.40;;;;;;;25.15;48.92;101368.97;8338728;28;20666;-56
2022/07/16 14:40:26;;;;;;;7.18;1.75;;;;;;;24.77;47.93;101371.53;8338559;28;20210;-57
2022/07/16 14:44:26;;;;;;;6.50;1.20;;;;;;;24.68;47.68;101372.84;8338792;28;20521;-57
2022/07/16 14:48:51;;;;;;;2.08;1.20;;;;;;;24.64;47.23;101368.78;8339110;28;20041;-57
2022/07/16 14:52:52;;;;;;;12.32;1.13;;;;;;;24.63;46.61;101368.94;8340511;28;20041;-56
2022/07/16 14:56:52;;;;;;;6.82;0.95;;;;;;;24.71;46.98;101374.31;8338016;28;20037;-57
2022/07/16 15:00:53;;;;;;;2.80;1.27;;;;;;;24.59;46.08;101378.75;8337804;28;20045;-56
2022/07/16 15:04:53;;;;;;;4.53;1.20;;;;;;;24.73;47.13;101380.50;8337889;28;20298;-56
2022/07/16 15:08:54;;;;;;;3.80;0.90;;;;;;;24.94;48.72;101377.50;8338256;28;20159;-57
2022/07/16 15:12:54;;;;;;;3.28;0.90;;;;;;;25.12;47.91;101355.56;8337431;28;20033;-56
2022/07/16 15:16:54;;;;;;;6.00;1.30;;;;;;;24.86;45.88;101383.28;8337361;28;20060;-57
2022/07/16 15:20:55;;;;;;;4.95;0.80;;;;;;;24.75;46.63;101382.00;8338100;28;20565;-56
2022/07/16 15:24:55;;;;;;;3.70;1.00;;;;;;;24.84;47.00;101385.41;8337385;28;20087;-57
2022/07/16 15:28:55;;;;;;;1.85;0.65;;;;;;;24.51;47.98;101384.47;8339426;28;20282;-57
2022/07/16 15:33:37;;;;;;;3.27;0.87;;;;;;;24.63;48.55;101382.78;8341051;28;20025;-57
2022/07/16 15:37:16;;;;;;;3.72;0.73;;;;;;;24.70;47.87;101384.53;8341892;28;20280;-57
2022/07/16 15:41:17;;;;;;;4.15;0.73;;;;;;;24.62;47.67;101392.16;8344472;28;20370;-57
2022/07/16 15:45:17;;;;;;;3.80;0.80;;;;;;;24.64;47.78;101376.22;8342932;28;20102;-56
2022/07/16 15:49:18;;;;;;;5.60;0.70;;;;;;;24.48;47.18;101384.88;8343280;28;20045;-57
2022/07/16 15:53:18;;;;;;;5.43;0.80;;;;;;;24.60;47.51;101383.19;8344204;28;20143;-56
2022/07/16 15:57:18;;;;;;;4.43;0.60;;;;;;;24.61;47.61;101396.00;8343413;28;20287;-57
2022/07/16 16:01:19;;;;;;;4.38;0.70;;;;;;;24.40;47.16;101398.91;8342629;28;20907;-57
2022/07/16 16:05:20;;;;;;;7.53;1.23;;;;;;;24.40;47.08;101399.75;8336419;28;20079;-57
2022/07/16 16:09:20;;;;;;;3.58;0.93;;;;;;;24.34;46.12;101399.75;8344401;28;20143;-57
2022/07/16 16:13:20;;;;;;;2.78;0.75;;;;;;;24.28;45.23;101403.34;8340824;28;20045;-57
2022/07/16 16:17:21;;;;;;;5.10;0.80;;;;;;;24.39;45.50;101402.72;8342218;28;20580;-57
2022/07/16 16:21:22;;;;;;;3.85;0.93;;;;;;;24.38;46.15;101401.03;8343504;28;20291;-56
2022/07/16 16:25:22;;;;;;;7.35;0.88;;;;;;;24.27;44.74;101393.34;8342399;28;20078;-57
2022/07/16 16:29:23;;;;;;;2.45;0.85;;;;;;;24.23;44.81;101386.53;8342450;28;20083;-57
2022/07/16 16:33:48;;;;;;;2.13;0.70;;;;;;;24.20;45.04;101384.19;8341588;28;20111;-57
2022/07/16 16:37:48;;;;;;;3.97;0.68;;;;;;;24.35;44.94;101390.38;8334573;28;20099;-57
2022/07/16 16:41:49;;;;;;;2.30;0.70;;;;;;;24.09;44.07;101384.81;8342240;28;20243;-55
2022/07/16 16:45:49;;;;;;;1.52;0.63;;;;;;;24.12;45.15;101382.44;8338256;28;20068;-57
2022/07/16 16:49:49;;;;;;;3.47;0.90;;;;;;;24.26;45.15;101386.09;8343074;28;20396;-57
2022/07/16 16:53:50;;;;;;;2.75;0.73;;;;;;;24.21;44.85;101388.66;8339008;28;20040;-56
2022/07/16 16:57:50;;;;;;;4.57;0.90;;;;;;;24.07;44.96;101381.38;8341408;28;20040;-56
2022/07/16 17:01:51;;;;;;;3.42;0.70;;;;;;;24.11;44.67;101388.19;8338499;28;20040;-57
2022/07/16 17:05:52;;;;;;;1.60;0.55;;;;;;;24.19;45.74;101380.59;8336954;28;20052;-55
2022/07/16 17:09:52;;;;;;;6.95;0.85;;;;;;;24.13;45.65;101388.84;8340064;28;20037;-57
2022/07/16 17:13:53;;;;;;;1.90;0.65;;;;;;;24.16;46.09;101391.19;8338673;28;20125;-56
2022/07/16 17:17:54;;;;;;;4.75;0.82;;;;;;;24.19;46.71;101397.16;8339734;28;20037;-56
2022/07/16 17:21:54;;;;;;;2.80;0.60;;;;;;;24.09;46.41;101401.38;8339841;28;20153;-56
2022/07/16 17:25:54;;;;;;;2.55;0.73;;;;;;;24.07;46.97;101389.66;8339801;28;20327;-57
2022/07/16 17:29:55;;;;;;;6.20;0.80;;;;;;;24.13;47.70;101399.91;8341972;28;20040;-56
2022/07/16 17:33:56;;;;;;;5.78;0.70;;;;;;;24.08;47.07;101396.88;8341421;28;20296;-57
2022/07/16 17:37:56;;;;;;;4.22;0.93;;;;;;;23.99;47.40;101409.19;8345421;28;20040;-57
2022/07/16 17:41:57;;;;;;;1.93;0.63;;;;;;;23.86;46.92;101398.03;8336133;28;20041;-56
2022/07/16 17:45:57;;;;;;;2.92;0.60;;;;;;;23.82;46.38;101410.56;8339228;28;20799;-56
2022/07/16 17:49:57;;;;;;;3.22;0.75;;;;;;;23.76;46.00;101408.63;8339118;28;20494;-57
2022/07/16 17:53:58;;;;;;;2.38;0.68;;;;;;;23.68;45.93;101408.78;8335544;28;20064;-56
2022/07/16 17:57:59;;;;;;;3.67;0.70;;;;;;;23.67;47.16;101407.94;8340155;28;20520;-56
2022/07/16 18:02:00;;;;;;;1.63;0.60;;;;;;;23.60;47.05;101408.97;8339434;28;20832;-57
2022/07/16 18:06:00;;;;;;;3.90;0.90;;;;;;;23.63;46.95;101412.16;8338721;28;20448;-53
2022/07/16 18:10:01;;;;;;;2.90;0.82;;;;;;;23.48;46.94;101411.41;8339730;28;20029;-56
2022/07/16 18:14:02;;;;;;;8.20;1.02;;;;;;;23.48;46.90;101421.63;8338678;28;20086;-57
2022/07/16 18:18:02;;;;;;;2.75;0.70;;;;;;;23.43;47.76;101422.25;8339374;28;20084;-55
2022/07/16 18:22:03;;;;;;;2.92;0.93;;;;;;;23.41;49.17;101426.22;8342080;28;20053;-57
2022/07/16 18:26:04;;;;;;;3.20;0.82;;;;;;;23.29;49.07;101419.59;8339302;28;20055;-57
2022/07/16 18:30:05;;;;;;;4.43;0.80;;;;;;;23.17;49.49;101427.50;8339741;28;20061;-56
2022/07/16 18:34:06;;;;;;;2.28;0.90;;;;;;;23.10;49.75;101433.00;8335745;28;20765;-56
2022/07/16 18:38:07;;;;;;;4.03;0.93;;;;;;;23.00;50.49;101431.63;8334254;28;20038;-57
2022/07/16 18:42:07;;;;;;;5.15;0.70;;;;;;;22.92;50.83;101440.03;8339594;28;20041;-57
2022/07/16 18:46:09;;;;;;;3.45;1.10;;;;;;;22.77;51.42;101442.88;8335823;28;20539;-55
2022/07/16 18:50:09;;;;;;;4.97;1.08;;;;;;;22.68;51.62;101438.53;8338441;28;20037;-56